Time,TemperatureF,DewpointF,PressureIn,WindDirection,WindDirectionDegrees,WindSpeedMPH,WindSpeedGustMPH,Humidity,HourlyPrecipIn,Conditions,Clouds,dailyrainin,SoftwareType,DateUTC
2013-07-03 00:03:00,62.2,50.3,30.04,NE,48,0.0,0.0,65,0.00,,,0.00,VWS V13.01,2013-07-03 05:03:00,
2013-07-03 00:07:00,61.7,50.6,30.04,NE,48,0.0,0.0,67,0.00,,,0.00,VWS V13.01,2013-07-03 05:07:00,
2013-07-03 00:12:00,61.3,50.3,30.04,NE,48,0.0,0.0,67,0.00,,,0.00,VWS V13.01,2013-07-03 05:12:00,
2013-07-03 00:17:00,61.0,51.1,30.04,NE,48,0.0,0.0,70,0.00,,,0.00,VWS V13.01,2013-07-03 05:17:00,
2013-07-03 00:19:00,61.0,51.1,30.04,NE,48,0.0,0.0,70,0.00,,,0.00,VWS V13.01,2013-07-03 05:19:00,
2013-07-03 00:24:00,60.8,51.3,30.04,NE,48,0.0,0.0,71,0.00,,,0.00,VWS V13.01,2013-07-03 05:24:00,
2013-07-03 00:29:00,60.8,51.0,30.04,NE,48,0.0,0.0,70,0.00,,,0.00,VWS V13.01,2013-07-03 05:29:00,
2013-07-03 00:34:00,60.6,50.4,30.04,NE,48,0.0,0.0,69,0.00,,,0.00,VWS V13.01,2013-07-03 05:34:00,
2013-07-03 00:39:00,60.6,50.0,30.04,North,11,2.7,2.7,68,0.00,,,0.00,VWS V13.01,2013-07-03 05:39:00,
2013-07-03 00:44:00,60.4,51.0,30.04,NNE,17,2.7,2.7,71,0.00,,,0.00,VWS V13.01,2013-07-03 05:44:00,
2013-07-03 00:49:00,60.2,50.4,30.04,NNE,17,2.2,2.2,70,0.00,,,0.00,VWS V13.01,2013-07-03 05:49:00,
2013-07-03 00:54:00,59.7,50.7,30.04,NNE,17,2.2,2.7,72,0.00,,,0.00,VWS V13.01,2013-07-03 05:54:00,
2013-07-03 00:57:00,59.7,50.7,30.04,NNE,17,0.0,0.0,72,0.00,,,0.00,VWS V13.01,2013-07-03 05:57:00,
2013-07-03 00:58:00,59.5,50.5,30.04,NNE,17,0.0,0.0,72,0.00,,,0.00,VWS V13.01,2013-07-03 05:58:00,
2013-07-03 01:02:00,59.5,50.5,30.04,NNE,17,0.0,0.0,72,0.00,,,0.00,VWS V13.01,2013-07-03 06:02:00,
2013-07-03 01:07:00,59.3,50.7,30.04,NNE,17,0.0,0.0,73,0.00,,,0.00,VWS V13.01,2013-07-03 06:07:00,
2013-07-03 01:12:00,59.3,50.7,30.04,NNE,17,0.0,0.0,73,0.00,,,0.00,VWS V13.01,2013-07-03 06:12:00,
2013-07-03 01:13:00,59.3,51.1,30.04,NNE,17,0.0,0.0,74,0.00,,,0.00,VWS V13.01,2013-07-03 06:13:00,
2013-07-03 01:16:00,59.2,50.9,30.04,NNE,17,0.0,0.0,74,0.00,,,0.00,VWS V13.01,2013-07-03 06:16:00,
2013-07-03 01:18:00,59.2,50.9,30.04,NNE,17,0.0,0.0,74,0.00,,,0.00,VWS V13.01,2013-07-03 06:18:00,
2013-07-03 01:22:00,59.0,50.3,30.04,NNE,17,0.0,0.0,73,0.00,,,0.00,VWS V13.01,2013-07-03 06:22:00,
2013-07-03 01:24:00,58.8,50.5,30.04,NNE,17,0.0,0.0,74,0.00,,,0.00,VWS V13.01,2013-07-03 06:24:00,
2013-07-03 01:26:00,58.8,50.9,30.04,NNE,17,0.0,0.0,75,0.00,,,0.00,VWS V13.01,2013-07-03 06:26:00,
2013-07-03 01:31:00,58.8,50.5,30.04,NNE,17,0.0,0.0,74,0.00,,,0.00,VWS V13.01,2013-07-03 06:31:00,
2013-07-03 01:32:00,58.8,50.9,30.04,NNE,17,0.0,0.0,75,0.00,,,0.00,VWS V13.01,2013-07-03 06:32:00,
2013-07-03 01:37:00,58.6,50.4,30.04,NNE,17,0.0,0.0,74,0.00,,,0.00,VWS V13.01,2013-07-03 06:37:00,
2013-07-03 01:42:00,58.6,50.7,30.04,NNE,17,0.0,0.0,75,0.00,,,0.00,VWS V13.01,2013-07-03 06:42:00,
2013-07-03 01:43:00,58.6,50.7,30.04,NNE,17,0.0,0.0,75,0.00,,,0.00,VWS V13.01,2013-07-03 06:43:00,
2013-07-03 01:48:00,58.4,51.6,30.04,NNE,17,0.0,0.0,78,0.00,,,0.00,VWS V13.01,2013-07-03 06:48:00,
2013-07-03 01:53:00,58.4,50.9,30.04,NNE,17,0.0,0.0,76,0.00,,,0.00,VWS V13.01,2013-07-03 06:53:00,
2013-07-03 01:55:00,58.4,50.9,30.04,NNE,17,0.0,0.0,76,0.00,,,0.00,VWS V13.01,2013-07-03 06:55:00,
2013-07-03 02:00:00,58.3,50.7,30.04,NNE,17,0.0,0.0,76,0.00,,,0.00,VWS V13.01,2013-07-03 07:00:00,
2013-07-03 02:05:00,58.3,51.1,30.04,NNE,17,0.0,0.0,77,0.00,,,0.00,VWS V13.01,2013-07-03 07:05:00,
2013-07-03 02:10:00,58.1,51.3,30.04,NNE,17,0.0,0.0,78,0.00,,,0.00,VWS V13.01,2013-07-03 07:10:00,
2013-07-03 02:15:00,57.7,50.9,30.04,NNE,17,0.0,0.0,78,0.00,,,0.00,VWS V13.01,2013-07-03 07:15:00,
2013-07-03 02:16:00,57.7,50.9,30.04,NNE,17,0.0,0.0,78,0.00,,,0.00,VWS V13.01,2013-07-03 07:16:00,
2013-07-03 02:21:00,57.5,50.7,30.04,NNE,17,0.0,0.0,78,0.00,,,0.00,VWS V13.01,2013-07-03 07:21:00,
2013-07-03 02:26:00,57.4,50.6,30.04,NNE,17,0.0,0.0,78,0.00,,,0.00,VWS V13.01,2013-07-03 07:26:00,
2013-07-03 02:32:00,57.2,51.1,30.04,NNE,17,0.0,0.0,80,0.00,,,0.00,VWS V13.01,2013-07-03 07:32:00,
2013-07-03 02:37:00,57.0,51.2,30.04,NNE,17,0.0,0.0,81,0.00,,,0.00,VWS V13.01,2013-07-03 07:37:00,
2013-07-03 02:39:00,57.0,51.6,30.04,NNE,17,0.0,0.0,82,0.00,,,0.00,VWS V13.01,2013-07-03 07:39:00,
2013-07-03 02:44:00,57.0,51.9,30.04,NNE,17,0.0,0.0,83,0.00,,,0.00,VWS V13.01,2013-07-03 07:44:00,
2013-07-03 02:49:00,57.0,51.6,30.04,NNE,17,0.0,0.0,82,0.00,,,0.00,VWS V13.01,2013-07-03 07:49:00,
2013-07-03 02:50:00,57.0,51.6,30.04,NNE,17,0.0,0.0,82,0.00,,,0.00,VWS V13.01,2013-07-03 07:50:00,
2013-07-03 02:56:00,57.0,51.6,30.04,NNE,17,0.0,0.0,82,0.00,,,0.00,VWS V13.01,2013-07-03 07:56:00,
2013-07-03 03:01:00,56.6,51.2,30.04,NNE,17,0.0,0.0,82,0.00,,,0.00,VWS V13.01,2013-07-03 08:01:00,
2013-07-03 03:06:00,56.5,51.0,30.04,NNE,17,0.0,0.0,82,0.00,,,0.00,VWS V13.01,2013-07-03 08:06:00,
2013-07-03 03:09:00,56.3,50.9,30.04,NNE,17,0.0,0.0,82,0.00,,,0.00,VWS V13.01,2013-07-03 08:09:00,
2013-07-03 03:14:00,56.3,51.2,30.04,NNE,17,0.0,0.0,83,0.00,,,0.00,VWS V13.01,2013-07-03 08:14:00,
2013-07-03 03:19:00,56.1,51.7,30.04,NNE,17,0.0,0.0,85,0.00,,,0.00,VWS V13.01,2013-07-03 08:19:00,
2013-07-03 03:24:00,56.1,52.0,30.04,NNE,17,0.0,0.0,86,0.00,,,0.00,VWS V13.01,2013-07-03 08:24:00,
2013-07-03 03:29:00,56.1,52.6,30.04,NNE,23,0.0,0.0,88,0.00,,,0.00,VWS V13.01,2013-07-03 08:29:00,
2013-07-03 03:34:00,56.3,52.8,30.04,NNE,23,0.0,0.0,88,0.00,,,0.00,VWS V13.01,2013-07-03 08:34:00,
2013-07-03 03:39:00,56.3,52.5,30.04,NNE,23,0.0,0.0,87,0.00,,,0.00,VWS V13.01,2013-07-03 08:39:00,
2013-07-03 03:45:00,56.3,52.2,30.01,NNE,16,0.0,0.0,86,0.00,,,0.00,VWS V13.01,2013-07-03 08:45:00,
2013-07-03 03:50:00,56.3,52.2,30.01,NE,39,0.0,0.0,86,0.00,,,0.00,VWS V13.01,2013-07-03 08:50:00,
2013-07-03 03:54:00,56.3,52.2,30.01,NE,39,0.0,0.0,86,0.00,,,0.00,VWS V13.01,2013-07-03 08:54:00,
2013-07-03 03:55:00,56.3,52.2,30.01,NE,39,0.0,0.0,86,0.00,,,0.00,VWS V13.01,2013-07-03 08:55:00,
2013-07-03 04:00:00,56.6,51.9,30.04,NNE,13,0.0,0.0,84,0.00,,,0.00,VWS V13.01,2013-07-03 09:00:00,
2013-07-03 04:05:00,56.8,51.7,30.04,NNE,13,0.0,0.0,83,0.00,,,0.00,VWS V13.01,2013-07-03 09:05:00,
2013-07-03 04:10:00,56.8,51.7,30.04,NNE,13,0.0,0.0,83,0.00,,,0.00,VWS V13.01,2013-07-03 09:10:00,
2013-07-03 04:15:00,56.8,51.4,30.04,NNE,13,0.0,0.0,82,0.00,,,0.00,VWS V13.01,2013-07-03 09:15:00,
2013-07-03 04:21:00,56.6,51.2,30.04,NNE,13,0.0,0.0,82,0.00,,,0.00,VWS V13.01,2013-07-03 09:21:00,
2013-07-03 04:26:00,56.5,51.0,30.04,NNE,13,0.0,0.0,82,0.00,,,0.00,VWS V13.01,2013-07-03 09:26:00,
2013-07-03 04:31:00,56.3,50.9,30.04,NNE,13,0.0,0.0,82,0.00,,,0.00,VWS V13.01,2013-07-03 09:31:00,
2013-07-03 04:36:00,56.1,50.7,30.04,NNE,13,0.0,0.0,82,0.00,,,0.00,VWS V13.01,2013-07-03 09:36:00,
2013-07-03 04:41:00,55.9,51.2,30.04,NNE,13,0.0,0.0,84,0.00,,,0.00,VWS V13.01,2013-07-03 09:41:00,
2013-07-03 04:46:00,55.9,51.5,30.04,NNE,13,0.0,0.0,85,0.00,,,0.00,VWS V13.01,2013-07-03 09:46:00,
2013-07-03 04:49:00,55.9,51.5,30.04,NNE,13,0.0,0.0,85,0.00,,,0.00,VWS V13.01,2013-07-03 09:49:00,
2013-07-03 04:50:00,55.9,51.5,30.04,NNE,13,0.0,0.0,85,0.00,,,0.00,VWS V13.01,2013-07-03 09:50:00,
2013-07-03 04:55:00,55.7,51.3,30.04,NNE,13,0.0,0.0,85,0.00,,,0.00,VWS V13.01,2013-07-03 09:55:00,
2013-07-03 05:01:00,55.7,51.3,30.04,NNE,13,0.0,0.0,85,0.00,,,0.00,VWS V13.01,2013-07-03 10:01:00,
2013-07-03 05:04:00,55.7,51.3,30.04,NNE,13,0.0,0.0,85,0.00,,,0.00,VWS V13.01,2013-07-03 10:04:00,
2013-07-03 05:05:00,55.6,51.1,30.04,NNE,13,0.0,0.0,85,0.00,,,0.00,VWS V13.01,2013-07-03 10:05:00,
2013-07-03 05:10:00,55.6,51.1,30.04,NNE,13,0.0,0.0,85,0.00,,,0.00,VWS V13.01,2013-07-03 10:10:00,
2013-07-03 05:15:00,55.6,51.1,30.04,NNE,13,0.0,0.0,85,0.00,,,0.00,VWS V13.01,2013-07-03 10:15:00,
2013-07-03 05:20:00,55.4,51.3,30.04,NNE,13,0.0,0.0,86,0.00,,,0.00,VWS V13.01,2013-07-03 10:20:00,
2013-07-03 05:25:00,55.4,51.9,30.04,NNE,13,0.0,0.0,88,0.00,,,0.00,VWS V13.01,2013-07-03 10:25:00,
2013-07-03 05:30:00,55.4,52.2,30.04,NNE,13,0.0,0.0,89,0.00,,,0.00,VWS V13.01,2013-07-03 10:30:00,
2013-07-03 05:33:00,55.4,52.2,30.04,NNE,13,0.0,0.0,89,0.00,,,0.00,VWS V13.01,2013-07-03 10:33:00,
2013-07-03 05:39:00,55.2,51.7,30.04,NNE,13,0.0,0.0,88,0.00,,,0.00,VWS V13.01,2013-07-03 10:39:00,
2013-07-03 05:44:00,55.4,52.5,30.04,NNE,13,0.0,0.0,90,0.00,,,0.00,VWS V13.01,2013-07-03 10:44:00,
2013-07-03 05:49:00,55.4,52.5,30.04,NNE,13,0.0,0.0,90,0.00,,,0.00,VWS V13.01,2013-07-03 10:49:00,
2013-07-03 05:54:00,55.4,52.5,30.04,NNE,13,0.0,0.0,90,0.00,,,0.00,VWS V13.01,2013-07-03 10:54:00,
2013-07-03 05:55:00,55.4,52.5,30.04,NNE,13,0.0,0.0,90,0.00,,,0.00,VWS V13.01,2013-07-03 10:55:00,
2013-07-03 05:57:00,55.4,52.5,30.04,NNE,13,0.0,0.0,90,0.00,,,0.00,VWS V13.01,2013-07-03 10:57:00,
2013-07-03 06:02:00,55.2,52.3,30.04,NNE,13,0.0,0.0,90,0.00,,,0.00,VWS V13.01,2013-07-03 11:02:00,
2013-07-03 06:07:00,55.2,52.0,30.04,NNE,13,0.0,0.0,89,0.00,,,0.00,VWS V13.01,2013-07-03 11:07:00,
2013-07-03 06:08:00,55.2,52.0,30.04,NNE,13,0.0,0.0,89,0.00,,,0.00,VWS V13.01,2013-07-03 11:08:00,
2013-07-03 06:09:00,55.2,52.0,30.04,NNE,13,0.0,0.0,89,0.00,,,0.00,VWS V13.01,2013-07-03 11:09:00,
2013-07-03 06:14:00,55.0,52.2,30.04,NNE,13,0.0,0.0,90,0.00,,,0.00,VWS V13.01,2013-07-03 11:14:00,
2013-07-03 06:19:00,55.2,52.3,30.04,NNE,13,0.0,0.0,90,0.00,,,0.00,VWS V13.01,2013-07-03 11:19:00,
2013-07-03 06:23:00,55.0,52.5,30.04,NNE,13,0.0,0.0,91,0.00,,,0.00,VWS V13.01,2013-07-03 11:23:00,
2013-07-03 06:25:00,55.2,52.6,30.04,NNE,13,0.0,0.0,91,0.00,,,0.00,VWS V13.01,2013-07-03 11:25:00,
2013-07-03 06:30:00,55.2,52.6,30.04,NNE,13,0.0,0.0,91,0.00,,,0.00,VWS V13.01,2013-07-03 11:30:00,
2013-07-03 06:35:00,55.2,52.6,30.04,NNE,13,0.0,0.0,91,0.00,,,0.00,VWS V13.01,2013-07-03 11:35:00,
2013-07-03 06:40:00,55.2,52.6,30.04,NNE,13,0.0,0.0,91,0.00,,,0.00,VWS V13.01,2013-07-03 11:40:00,
2013-07-03 06:46:00,55.4,53.1,30.04,NNE,13,0.0,0.0,92,0.00,,,0.00,VWS V13.01,2013-07-03 11:46:00,
2013-07-03 06:51:00,55.6,53.6,30.04,NNE,13,0.0,0.0,93,0.00,,,0.00,VWS V13.01,2013-07-03 11:51:00,
2013-07-03 06:56:00,55.9,53.9,30.04,NNE,13,0.0,0.0,93,0.00,,,0.00,VWS V13.01,2013-07-03 11:56:00,
2013-07-03 06:59:00,56.1,54.1,30.04,North,11,0.0,0.0,93,0.00,,,0.00,VWS V13.01,2013-07-03 11:59:00,
2013-07-03 07:02:00,56.3,54.3,30.04,NE,48,0.0,0.0,93,0.00,,,0.00,VWS V13.01,2013-07-03 12:02:00,
2013-07-03 07:07:00,57.0,54.7,30.04,NE,48,0.0,0.0,92,0.00,,,0.00,VWS V13.01,2013-07-03 12:07:00,
2013-07-03 07:12:00,57.5,54.9,30.04,NE,48,0.0,0.0,91,0.00,,,0.00,VWS V13.01,2013-07-03 12:12:00,
2013-07-03 07:13:00,57.7,55.1,30.07,NE,48,0.0,0.0,91,0.00,,,0.00,VWS V13.01,2013-07-03 12:13:00,
2013-07-03 07:16:00,57.9,54.7,30.07,NE,48,0.0,0.0,89,0.00,,,0.00,VWS V13.01,2013-07-03 12:16:00,
2013-07-03 07:20:00,58.6,55.4,30.07,NE,48,0.0,0.0,89,0.00,,,0.00,VWS V13.01,2013-07-03 12:20:00,
2013-07-03 07:25:00,59.3,54.8,30.07,NE,48,0.0,0.0,85,0.00,,,0.00,VWS V13.01,2013-07-03 12:25:00,
2013-07-03 07:30:00,60.1,53.9,30.07,NE,48,0.0,0.0,80,0.00,,,0.00,VWS V13.01,2013-07-03 12:30:00,
2013-07-03 07:35:00,60.6,53.7,30.07,NE,48,0.0,0.0,78,0.00,,,0.00,VWS V13.01,2013-07-03 12:35:00,
2013-07-03 07:40:00,61.3,54.1,30.07,NE,36,0.0,0.0,77,0.00,,,0.00,VWS V13.01,2013-07-03 12:40:00,
2013-07-03 07:45:00,62.0,55.1,30.07,NE,36,0.0,0.0,78,0.00,,,0.00,VWS V13.01,2013-07-03 12:45:00,
2013-07-03 07:46:00,62.0,55.1,30.07,NE,36,0.0,0.0,78,0.00,,,0.00,VWS V13.01,2013-07-03 12:46:00,
2013-07-03 07:51:00,62.8,54.7,30.07,NE,36,0.0,0.0,75,0.00,,,0.00,VWS V13.01,2013-07-03 12:51:00,
2013-07-03 07:56:00,63.7,54.5,30.07,NE,35,0.0,0.0,72,0.00,,,0.00,VWS V13.01,2013-07-03 12:56:00,
2013-07-03 08:01:00,64.2,53.8,30.07,NE,34,0.0,0.0,69,0.00,,,0.00,VWS V13.01,2013-07-03 13:01:00,
2013-07-03 08:07:00,64.7,54.7,30.07,NE,34,0.0,0.0,70,0.00,,,0.00,VWS V13.01,2013-07-03 13:07:00,
2013-07-03 08:12:00,65.6,56.0,30.07,NE,35,0.0,0.0,71,0.00,,,0.00,VWS V13.01,2013-07-03 13:12:00,
2013-07-03 08:17:00,66.2,56.1,30.07,ENE,59,0.0,0.0,70,0.00,,,0.00,VWS V13.01,2013-07-03 13:17:00,
2013-07-03 08:23:00,66.5,55.7,30.07,East,84,0.0,0.0,68,0.00,,,0.00,VWS V13.01,2013-07-03 13:23:00,
2013-07-03 08:26:00,66.7,55.4,30.07,East,98,0.0,0.0,67,0.00,,,0.00,VWS V13.01,2013-07-03 13:26:00,
2013-07-03 08:31:00,67.4,54.8,30.07,NE,35,0.0,0.0,64,0.00,,,0.00,VWS V13.01,2013-07-03 13:31:00,
2013-07-03 08:37:00,68.3,54.8,30.07,NNE,16,0.0,2.2,62,0.00,,,0.00,VWS V13.01,2013-07-03 13:37:00,
2013-07-03 08:42:00,69.2,54.3,30.07,NNE,15,2.7,2.7,59,0.00,,,0.00,VWS V13.01,2013-07-03 13:42:00,
2013-07-03 08:47:00,69.4,54.0,30.07,NW,322,0.0,0.0,58,0.00,,,0.00,VWS V13.01,2013-07-03 13:47:00,
2013-07-03 08:52:00,69.8,54.3,30.07,SE,134,0.0,0.0,58,0.00,,,0.00,VWS V13.01,2013-07-03 13:52:00,
2013-07-03 08:58:00,70.1,53.7,30.07,East,90,2.7,2.7,56,0.00,,,0.00,VWS V13.01,2013-07-03 13:58:00,
2013-07-03 09:03:00,71.0,53.6,30.07,ENE,58,2.2,2.7,54,0.00,,,0.00,VWS V13.01,2013-07-03 14:03:00,
2013-07-03 09:06:00,71.2,53.7,30.07,NE,54,3.1,3.1,54,0.00,,,0.00,VWS V13.01,2013-07-03 14:06:00,
2013-07-03 09:09:00,71.2,53.2,30.07,East,95,2.2,2.7,53,0.00,,,0.00,VWS V13.01,2013-07-03 14:09:00,
2013-07-03 09:14:00,70.9,52.9,30.07,ESE,110,2.2,3.6,53,0.00,,,0.00,VWS V13.01,2013-07-03 14:14:00,
2013-07-03 09:18:00,70.7,52.7,30.07,NNE,31,3.6,3.6,53,0.00,,,0.00,VWS V13.01,2013-07-03 14:18:00,
2013-07-03 09:23:00,71.4,53.4,30.07,SE,128,4.0,4.0,53,0.00,,,0.00,VWS V13.01,2013-07-03 14:23:00,
2013-07-03 09:28:00,71.2,53.2,30.07,SE,129,2.2,2.7,53,0.00,,,0.00,VWS V13.01,2013-07-03 14:28:00,
2013-07-03 09:30:00,71.0,53.1,30.07,WNW,302,3.6,3.6,53,0.00,,,0.00,VWS V13.01,2013-07-03 14:30:00,
2013-07-03 09:35:00,71.2,53.2,30.07,SSW,207,2.7,3.1,53,0.00,,,0.00,VWS V13.01,2013-07-03 14:35:00,
2013-07-03 09:38:00,71.6,53.6,30.07,ENE,59,2.7,2.7,53,0.00,,,0.00,VWS V13.01,2013-07-03 14:38:00,
2013-07-03 09:41:00,72.1,53.0,30.07,NNE,27,0.0,2.2,51,0.00,,,0.00,VWS V13.01,2013-07-03 14:41:00,
2013-07-03 09:46:00,72.8,54.2,30.07,ESE,121,0.0,2.2,52,0.00,,,0.00,VWS V13.01,2013-07-03 14:46:00,
2013-07-03 09:51:00,73.4,53.6,30.07,NNW,331,0.0,0.0,50,0.00,,,0.00,VWS V13.01,2013-07-03 14:51:00,
2013-07-03 09:56:00,73.6,53.2,30.07,SE,130,4.0,4.0,49,0.00,,,0.00,VWS V13.01,2013-07-03 14:56:00,
2013-07-03 09:58:00,73.4,53.1,30.07,SE,131,2.7,3.1,49,0.00,,,0.00,VWS V13.01,2013-07-03 14:58:00,
2013-07-03 10:03:00,73.4,53.1,30.07,East,91,3.1,3.6,49,0.00,,,0.00,VWS V13.01,2013-07-03 15:03:00,
2013-07-03 10:04:00,73.4,53.1,30.07,East,84,3.1,3.6,49,0.00,,,0.00,VWS V13.01,2013-07-03 15:04:00,
2013-07-03 10:09:00,73.4,52.5,30.07,South,175,4.0,4.5,48,0.00,,,0.00,VWS V13.01,2013-07-03 15:09:00,
2013-07-03 10:14:00,73.4,52.5,30.07,SE,127,4.0,5.4,48,0.00,,,0.00,VWS V13.01,2013-07-03 15:14:00,
2013-07-03 10:15:00,73.6,53.2,30.07,SSE,150,3.1,3.1,49,0.00,,,0.00,VWS V13.01,2013-07-03 15:15:00,
2013-07-03 10:20:00,73.7,52.8,30.07,ENE,70,4.0,4.0,48,0.00,,,0.00,VWS V13.01,2013-07-03 15:20:00,
2013-07-03 10:26:00,74.3,53.9,30.07,SSE,160,4.0,4.0,49,0.00,,,0.00,VWS V13.01,2013-07-03 15:26:00,
2013-07-03 10:28:00,74.5,53.5,30.07,SE,124,3.1,4.0,48,0.00,,,0.00,VWS V13.01,2013-07-03 15:28:00,
2013-07-03 10:33:00,74.8,53.3,30.07,East,96,4.0,5.8,47,0.00,,,0.00,VWS V13.01,2013-07-03 15:33:00,
2013-07-03 10:38:00,75.4,52.6,30.07,North,357,2.2,2.2,45,0.00,,,0.00,VWS V13.01,2013-07-03 15:38:00,
2013-07-03 10:41:00,75.5,52.7,30.07,ESE,104,5.4,5.8,45,0.00,,,0.00,VWS V13.01,2013-07-03 15:41:00,
2013-07-03 10:46:00,75.2,53.0,30.07,South,173,0.0,0.0,46,0.00,,,0.00,VWS V13.01,2013-07-03 15:46:00,
2013-07-03 10:52:00,75.7,53.5,30.07,SSE,157,2.7,2.7,46,0.00,,,0.00,VWS V13.01,2013-07-03 15:52:00,
2013-07-03 10:57:00,75.9,55.4,30.07,SW,227,0.0,2.7,49,0.00,,,0.00,VWS V13.01,2013-07-03 15:57:00,
2013-07-03 11:02:00,76.4,54.2,30.07,SE,125,2.7,2.7,46,0.00,,,0.00,VWS V13.01,2013-07-03 16:02:00,
2013-07-03 11:07:00,77.0,53.4,30.07,SW,217,2.7,2.7,44,0.00,,,0.00,VWS V13.01,2013-07-03 16:07:00,
2013-07-03 11:12:00,77.0,53.4,30.07,SE,131,5.4,5.4,44,0.00,,,0.00,VWS V13.01,2013-07-03 16:12:00,
2013-07-03 11:17:00,77.2,53.0,30.07,SSE,150,3.1,3.6,43,0.00,,,0.00,VWS V13.01,2013-07-03 16:17:00,
2013-07-03 11:22:00,77.3,55.6,30.07,SE,126,4.0,5.8,47,0.00,,,0.00,VWS V13.01,2013-07-03 16:22:00,
2013-07-03 11:28:00,77.2,54.2,30.07,SSE,167,4.0,5.4,45,0.00,,,0.00,VWS V13.01,2013-07-03 16:28:00,
2013-07-03 11:33:00,77.2,53.6,30.07,ESE,121,0.0,3.6,44,0.00,,,0.00,VWS V13.01,2013-07-03 16:33:00,
2013-07-03 11:38:00,77.9,56.0,30.07,SSE,157,4.0,4.0,47,0.00,,,0.00,VWS V13.01,2013-07-03 16:38:00,
2013-07-03 11:43:00,77.9,56.0,30.07,South,189,3.6,4.0,47,0.00,,,0.00,VWS V13.01,2013-07-03 16:43:00,
2013-07-03 11:48:00,78.2,55.2,30.07,SE,135,4.9,4.9,45,0.00,,,0.00,VWS V13.01,2013-07-03 16:48:00,
2013-07-03 11:53:00,78.4,54.7,30.07,South,173,3.1,3.6,44,0.00,,,0.00,VWS V13.01,2013-07-03 16:53:00,
2013-07-03 11:58:00,78.4,55.3,30.07,South,184,2.7,5.8,45,0.00,,,0.00,VWS V13.01,2013-07-03 16:58:00,
2013-07-03 12:04:00,78.6,54.3,30.07,SSE,168,8.1,8.7,43,0.00,,,0.00,VWS V13.01,2013-07-03 17:04:00,
2013-07-03 12:09:00,78.1,53.8,30.07,NNE,26,2.7,4.0,43,0.00,,,0.00,VWS V13.01,2013-07-03 17:09:00,
2013-07-03 12:14:00,78.8,53.8,30.04,West,276,2.7,4.0,42,0.00,,,0.00,VWS V13.01,2013-07-03 17:14:00,
2013-07-03 12:20:00,78.6,54.9,30.04,South,171,2.7,4.0,44,0.00,,,0.00,VWS V13.01,2013-07-03 17:20:00,
2013-07-03 12:25:00,79.5,54.4,30.04,SSE,165,6.7,7.6,42,0.00,,,0.00,VWS V13.01,2013-07-03 17:25:00,
2013-07-03 12:30:00,79.5,53.8,30.04,West,266,3.6,3.6,41,0.00,,,0.00,VWS V13.01,2013-07-03 17:30:00,
2013-07-03 12:35:00,79.3,53.6,30.04,SW,225,4.5,7.6,41,0.00,,,0.00,VWS V13.01,2013-07-03 17:35:00,
2013-07-03 12:40:00,79.1,53.4,30.04,West,266,3.1,5.4,41,0.00,,,0.00,VWS V13.01,2013-07-03 17:40:00,
2013-07-03 12:45:00,79.3,52.9,30.04,West,261,4.0,4.0,40,0.00,,,0.00,VWS V13.01,2013-07-03 17:45:00,
2013-07-03 12:50:00,79.5,53.1,30.04,WSW,240,3.1,5.4,40,0.00,,,0.00,VWS V13.01,2013-07-03 17:50:00,
2013-07-03 12:55:00,79.7,53.9,30.04,South,186,3.1,3.6,41,0.00,,,0.00,VWS V13.01,2013-07-03 17:55:00,
2013-07-03 13:01:00,79.5,53.8,30.04,SSE,147,4.9,4.9,41,0.00,,,0.00,VWS V13.01,2013-07-03 18:01:00,
2013-07-03 13:06:00,79.9,54.1,30.04,SW,226,2.7,2.7,41,0.00,,,0.00,VWS V13.01,2013-07-03 18:06:00,
2013-07-03 13:11:00,80.4,53.2,30.04,SW,214,4.0,5.8,39,0.00,,,0.00,VWS V13.01,2013-07-03 18:11:00,
2013-07-03 13:16:00,81.1,53.8,30.04,SSW,210,0.0,0.0,39,0.00,,,0.00,VWS V13.01,2013-07-03 18:16:00,
2013-07-03 13:22:00,82.6,55.1,30.04,SSW,201,4.0,4.9,39,0.00,,,0.00,VWS V13.01,2013-07-03 18:22:00,
2013-07-03 13:27:00,82.0,54.6,30.04,SSE,161,8.1,8.1,39,0.00,,,0.00,VWS V13.01,2013-07-03 18:27:00,
2013-07-03 13:32:00,80.9,53.7,30.04,SSE,168,6.7,8.1,39,0.00,,,0.00,VWS V13.01,2013-07-03 18:32:00,
2013-07-03 13:37:00,80.9,53.7,30.04,NW,314,2.2,4.0,39,0.00,,,0.00,VWS V13.01,2013-07-03 18:37:00,
2013-07-03 13:42:00,81.5,54.2,30.04,SSE,162,5.8,6.7,39,0.00,,,0.00,VWS V13.01,2013-07-03 18:42:00,
2013-07-03 13:47:00,81.7,54.3,30.01,South,172,2.7,6.3,39,0.00,,,0.00,VWS V13.01,2013-07-03 18:47:00,
2013-07-03 13:52:00,82.0,54.6,30.01,ESE,121,3.6,6.3,39,0.00,,,0.00,VWS V13.01,2013-07-03 18:52:00,
2013-07-03 13:57:00,82.6,54.4,30.01,South,188,3.1,4.9,38,0.00,,,0.00,VWS V13.01,2013-07-03 18:57:00,
2013-07-03 14:02:00,82.6,54.4,30.01,WSW,242,5.8,7.6,38,0.00,,,0.00,VWS V13.01,2013-07-03 19:02:00,
2013-07-03 14:07:00,82.6,55.1,30.01,SW,230,3.1,3.6,39,0.00,,,0.00,VWS V13.01,2013-07-03 19:07:00,
2013-07-03 14:12:00,82.6,54.4,30.01,SSE,167,4.0,6.3,38,0.00,,,0.00,VWS V13.01,2013-07-03 19:12:00,
2013-07-03 14:17:00,82.7,55.3,30.01,ESE,108,7.2,7.2,39,0.00,,,0.00,VWS V13.01,2013-07-03 19:17:00,
2013-07-03 14:22:00,82.7,53.1,30.01,NE,42,4.0,6.3,36,0.00,,,0.00,VWS V13.01,2013-07-03 19:22:00,
2013-07-03 14:28:00,82.6,54.4,30.01,South,185,4.0,4.0,38,0.00,,,0.00,VWS V13.01,2013-07-03 19:28:00,
2013-07-03 14:33:00,82.9,53.2,30.01,ESE,106,5.8,5.8,36,0.00,,,0.00,VWS V13.01,2013-07-03 19:33:00,
2013-07-03 14:38:00,83.6,55.4,30.01,NE,56,4.0,5.4,38,0.00,,,0.00,VWS V13.01,2013-07-03 19:38:00,
2013-07-03 14:43:00,84.2,54.4,30.01,South,173,0.0,0.0,36,0.00,,,0.00,VWS V13.01,2013-07-03 19:43:00,
2013-07-03 14:49:00,84.0,54.2,30.01,South,181,2.7,3.6,36,0.00,,,0.00,VWS V13.01,2013-07-03 19:49:00,
2013-07-03 14:54:00,83.8,55.5,30.01,WSW,248,4.9,4.9,38,0.00,,,0.00,VWS V13.01,2013-07-03 19:54:00,
2013-07-03 14:59:00,83.5,55.2,30.01,NNW,347,3.6,4.0,38,0.00,,,0.00,VWS V13.01,2013-07-03 19:59:00,
2013-07-03 15:04:00,84.2,55.8,30.01,ESE,108,2.7,2.7,38,0.00,,,0.00,VWS V13.01,2013-07-03 20:04:00,
2013-07-03 15:10:00,84.2,54.4,30.01,WSW,238,3.6,4.0,36,0.00,,,0.00,VWS V13.01,2013-07-03 20:10:00,
2013-07-03 15:15:00,83.6,53.9,30.01,SE,143,2.7,4.0,36,0.00,,,0.00,VWS V13.01,2013-07-03 20:15:00,
2013-07-03 15:20:00,83.3,53.6,30.01,South,179,4.0,5.8,36,0.00,,,0.00,VWS V13.01,2013-07-03 20:20:00,
2013-07-03 15:25:00,83.5,53.7,30.01,East,92,2.7,4.0,36,0.00,,,0.00,VWS V13.01,2013-07-03 20:25:00,
2013-07-03 15:31:00,83.8,54.0,30.01,SE,143,4.9,5.8,36,0.00,,,0.00,VWS V13.01,2013-07-03 20:31:00,
2013-07-03 15:36:00,84.2,54.4,30.01,South,181,5.4,5.4,36,0.00,,,0.00,VWS V13.01,2013-07-03 20:36:00,
2013-07-03 15:41:00,83.8,54.0,30.01,West,262,3.1,5.4,36,0.00,,,0.00,VWS V13.01,2013-07-03 20:41:00,
2013-07-03 15:46:00,83.8,54.0,29.98,ESE,112,0.0,0.0,36,0.00,,,0.00,VWS V13.01,2013-07-03 20:46:00,
2013-07-03 15:51:00,84.2,54.4,29.98,South,174,4.9,4.9,36,0.00,,,0.00,VWS V13.01,2013-07-03 20:51:00,
2013-07-03 15:56:00,84.0,54.2,29.98,SW,232,3.1,4.9,36,0.00,,,0.00,VWS V13.01,2013-07-03 20:56:00,
2013-07-03 16:01:00,83.8,54.0,29.98,SSW,199,3.6,4.9,36,0.00,,,0.00,VWS V13.01,2013-07-03 21:01:00,
2013-07-03 16:06:00,84.2,54.4,29.98,South,185,8.3,8.3,36,0.00,,,0.00,VWS V13.01,2013-07-03 21:06:00,
2013-07-03 16:12:00,83.8,54.0,29.98,East,90,3.6,5.8,36,0.00,,,0.00,VWS V13.01,2013-07-03 21:12:00,
2013-07-03 16:17:00,84.2,54.4,29.98,South,178,4.0,6.3,36,0.00,,,0.00,VWS V13.01,2013-07-03 21:17:00,
2013-07-03 16:22:00,83.6,53.9,29.98,SSW,194,5.4,5.4,36,0.00,,,0.00,VWS V13.01,2013-07-03 21:22:00,
2013-07-03 16:27:00,84.2,54.4,29.98,South,176,5.8,6.3,36,0.00,,,0.00,VWS V13.01,2013-07-03 21:27:00,
2013-07-03 16:32:00,84.0,54.2,29.98,SSW,195,2.7,4.0,36,0.00,,,0.00,VWS V13.01,2013-07-03 21:32:00,
2013-07-03 16:37:00,83.8,54.0,29.98,SE,143,4.0,8.1,36,0.00,,,0.00,VWS V13.01,2013-07-03 21:37:00,
2013-07-03 16:42:00,84.0,54.2,29.98,SSE,155,3.1,4.9,36,0.00,,,0.00,VWS V13.01,2013-07-03 21:42:00,
2013-07-03 16:47:00,84.7,54.8,29.98,South,186,3.1,4.9,36,0.00,,,0.00,VWS V13.01,2013-07-03 21:47:00,
2013-07-03 16:52:00,84.4,52.2,29.98,SE,131,3.6,5.4,33,0.00,,,0.00,VWS V13.01,2013-07-03 21:52:00,
2013-07-03 16:57:00,84.2,52.0,29.98,SSW,197,5.4,6.3,33,0.00,,,0.00,VWS V13.01,2013-07-03 21:57:00,
2013-07-03 17:02:00,83.6,51.5,29.98,South,188,7.6,8.1,33,0.00,,,0.00,VWS V13.01,2013-07-03 22:02:00,
2013-07-03 17:07:00,83.6,53.9,29.98,South,175,4.0,5.8,36,0.00,,,0.00,VWS V13.01,2013-07-03 22:07:00,
2013-07-03 17:12:00,83.8,54.0,29.98,SE,128,2.7,3.6,36,0.00,,,0.00,VWS V13.01,2013-07-03 22:12:00,
2013-07-03 17:18:00,83.8,54.0,29.98,South,169,6.3,8.3,36,0.00,,,0.00,VWS V13.01,2013-07-03 22:18:00,
2013-07-03 17:23:00,83.5,53.7,29.98,ESE,117,2.7,3.1,36,0.00,,,0.00,VWS V13.01,2013-07-03 22:23:00,
2013-07-03 17:28:00,83.8,54.0,29.98,SSE,163,3.1,4.0,36,0.00,,,0.00,VWS V13.01,2013-07-03 22:28:00,
2013-07-03 17:33:00,84.0,54.2,29.98,SSE,162,2.7,2.7,36,0.00,,,0.00,VWS V13.01,2013-07-03 22:33:00,
2013-07-03 17:38:00,84.2,54.4,29.98,SSE,155,2.7,4.0,36,0.00,,,0.00,VWS V13.01,2013-07-03 22:38:00,
2013-07-03 17:43:00,84.2,54.4,29.98,SSE,151,2.7,3.6,36,0.00,,,0.00,VWS V13.01,2013-07-03 22:43:00,
2013-07-03 17:48:00,83.8,51.7,29.95,South,169,5.4,5.4,33,0.00,,,0.00,VWS V13.01,2013-07-03 22:48:00,
2013-07-03 17:53:00,83.5,51.4,29.95,South,177,5.8,5.8,33,0.00,,,0.00,VWS V13.01,2013-07-03 22:53:00,
2013-07-03 17:58:00,83.5,53.7,29.95,South,186,3.1,3.1,36,0.00,,,0.00,VWS V13.01,2013-07-03 22:58:00,
2013-07-03 18:03:00,83.5,53.7,29.95,SSE,153,3.1,4.0,36,0.00,,,0.00,VWS V13.01,2013-07-03 23:03:00,
2013-07-03 18:09:00,83.5,53.7,29.95,South,170,4.0,5.4,36,0.00,,,0.00,VWS V13.01,2013-07-03 23:09:00,
2013-07-03 18:14:00,83.5,53.7,29.95,South,191,6.3,7.6,36,0.00,,,0.00,VWS V13.01,2013-07-03 23:14:00,
2013-07-03 18:19:00,83.5,53.7,29.95,South,185,3.1,4.0,36,0.00,,,0.00,VWS V13.01,2013-07-03 23:19:00,
2013-07-03 18:24:00,83.3,53.6,29.95,South,187,5.4,5.4,36,0.00,,,0.00,VWS V13.01,2013-07-03 23:24:00,
2013-07-03 18:29:00,83.1,53.4,29.95,SE,124,2.2,2.7,36,0.00,,,0.00,VWS V13.01,2013-07-03 23:29:00,
2013-07-03 18:34:00,83.1,53.4,29.95,SE,124,2.7,2.7,36,0.00,,,0.00,VWS V13.01,2013-07-03 23:34:00,
2013-07-03 18:39:00,83.3,53.6,29.95,SE,130,0.0,0.0,36,0.00,,,0.00,VWS V13.01,2013-07-03 23:39:00,
2013-07-03 18:44:00,83.3,53.6,29.98,SE,143,2.7,3.1,36,0.00,,,0.00,VWS V13.01,2013-07-03 23:44:00,
2013-07-03 18:49:00,83.3,53.6,29.98,SSE,166,2.7,3.1,36,0.00,,,0.00,VWS V13.01,2013-07-03 23:49:00,
2013-07-03 18:54:00,83.3,53.6,29.98,South,178,2.7,2.7,36,0.00,,,0.00,VWS V13.01,2013-07-03 23:54:00,
2013-07-03 19:00:00,83.1,53.4,29.95,South,171,0.0,2.7,36,0.00,,,0.00,VWS V13.01,2013-07-04 00:00:00,
2013-07-03 19:05:00,83.3,53.6,29.95,South,171,0.0,0.0,36,0.00,,,0.00,VWS V13.01,2013-07-04 00:05:00,
2013-07-03 19:11:00,83.3,53.6,29.95,South,173,3.6,3.6,36,0.00,,,0.00,VWS V13.01,2013-07-04 00:11:00,
2013-07-03 19:16:00,82.6,52.9,29.95,SSE,164,2.7,3.6,36,0.00,,,0.00,VWS V13.01,2013-07-04 00:16:00,
2013-07-03 19:21:00,82.2,52.6,29.95,SSE,164,0.0,0.0,36,0.00,,,0.00,VWS V13.01,2013-07-04 00:21:00,
2013-07-03 19:26:00,82.4,54.2,29.95,SSE,164,0.0,0.0,38,0.00,,,0.00,VWS V13.01,2013-07-04 00:26:00,
2013-07-03 19:32:00,82.6,54.4,29.95,SSE,164,0.0,0.0,38,0.00,,,0.00,VWS V13.01,2013-07-04 00:32:00,
2013-07-03 19:37:00,82.6,54.4,29.95,SSE,164,0.0,0.0,38,0.00,,,0.00,VWS V13.01,2013-07-04 00:37:00,
2013-07-03 19:42:00,82.2,54.1,29.95,SSE,164,0.0,0.0,38,0.00,,,0.00,VWS V13.01,2013-07-04 00:42:00,
2013-07-03 19:47:00,81.5,54.2,29.95,ENE,58,0.0,0.0,39,0.00,,,0.00,VWS V13.01,2013-07-04 00:47:00,
2013-07-03 19:52:00,80.6,53.4,29.95,ENE,58,0.0,0.0,39,0.00,,,0.00,VWS V13.01,2013-07-04 00:52:00,
2013-07-03 19:58:00,79.9,53.4,29.95,East,80,0.0,3.1,40,0.00,,,0.00,VWS V13.01,2013-07-04 00:58:00,
2013-07-03 20:03:00,79.3,52.9,29.95,East,86,2.7,3.1,40,0.00,,,0.00,VWS V13.01,2013-07-04 01:03:00,
2013-07-03 20:08:00,79.0,52.6,29.95,ESE,116,3.6,3.6,40,0.00,,,0.00,VWS V13.01,2013-07-04 01:08:00,
2013-07-03 20:13:00,78.6,52.3,29.95,ESE,112,0.0,0.0,40,0.00,,,0.00,VWS V13.01,2013-07-04 01:13:00,
2013-07-03 20:18:00,78.6,52.3,29.95,ENE,78,0.0,0.0,40,0.00,,,0.00,VWS V13.01,2013-07-04 01:18:00,
2013-07-03 20:24:00,78.6,52.3,29.95,ENE,60,0.0,0.0,40,0.00,,,0.00,VWS V13.01,2013-07-04 01:24:00,
2013-07-03 20:29:00,78.4,52.1,29.95,ENE,60,0.0,0.0,40,0.00,,,0.00,VWS V13.01,2013-07-04 01:29:00,
2013-07-03 20:34:00,78.1,52.5,29.95,ENE,60,0.0,0.0,41,0.00,,,0.00,VWS V13.01,2013-07-04 01:34:00,
2013-07-03 20:39:00,77.3,51.8,29.95,ENE,60,0.0,0.0,41,0.00,,,0.00,VWS V13.01,2013-07-04 01:39:00,
2013-07-03 20:44:00,76.4,51.7,29.98,ENE,60,0.0,0.0,42,0.00,,,0.00,VWS V13.01,2013-07-04 01:44:00,
2013-07-03 20:49:00,75.4,51.3,29.98,ENE,60,0.0,0.0,43,0.00,,,0.00,VWS V13.01,2013-07-04 01:49:00,
2013-07-03 20:54:00,74.5,51.8,29.98,ENE,60,0.0,0.0,45,0.00,,,0.00,VWS V13.01,2013-07-04 01:54:00,
2013-07-03 21:00:00,73.7,51.1,29.98,ENE,60,0.0,0.0,45,0.00,,,0.00,VWS V13.01,2013-07-04 02:00:00,
2013-07-03 21:05:00,73.2,51.8,29.98,ENE,60,0.0,0.0,47,0.00,,,0.00,VWS V13.01,2013-07-04 02:05:00,
2013-07-03 21:10:00,72.8,53.7,29.98,ENE,60,0.0,0.0,51,0.00,,,0.00,VWS V13.01,2013-07-04 02:10:00,
2013-07-03 21:15:00,71.8,52.7,29.98,ENE,60,0.0,0.0,51,0.00,,,0.00,VWS V13.01,2013-07-04 02:15:00,
2013-07-03 21:20:00,71.0,52.5,29.98,ENE,60,0.0,0.0,52,0.00,,,0.00,VWS V13.01,2013-07-04 02:20:00,
2013-07-03 21:25:00,70.5,52.6,29.98,ENE,60,0.0,0.0,53,0.00,,,0.00,VWS V13.01,2013-07-04 02:25:00,
2013-07-03 21:30:00,70.0,53.1,29.98,ENE,60,0.0,0.0,55,0.00,,,0.00,VWS V13.01,2013-07-04 02:30:00,
2013-07-03 21:35:00,69.4,53.1,29.98,ENE,60,0.0,0.0,56,0.00,,,0.00,VWS V13.01,2013-07-04 02:35:00,
2013-07-03 21:40:00,68.7,53.3,29.98,NE,36,4.0,4.0,58,0.00,,,0.00,VWS V13.01,2013-07-04 02:40:00,
2013-07-03 21:45:00,68.3,53.0,29.98,NE,37,0.0,0.0,58,0.00,,,0.00,VWS V13.01,2013-07-04 02:45:00,
2013-07-03 21:50:00,67.8,53.0,29.98,NE,36,2.2,2.2,59,0.00,,,0.00,VWS V13.01,2013-07-04 02:50:00,
2013-07-03 21:55:00,67.6,53.7,29.98,NNE,12,2.2,2.7,61,0.00,,,0.00,VWS V13.01,2013-07-04 02:55:00,
2013-07-03 22:01:00,67.3,53.4,29.98,NNE,12,0.0,2.7,61,0.00,,,0.00,VWS V13.01,2013-07-04 03:01:00,
2013-07-03 22:06:00,66.7,52.0,29.98,NNE,12,0.0,0.0,59,0.00,,,0.00,VWS V13.01,2013-07-04 03:06:00,
2013-07-03 22:11:00,66.7,52.4,29.98,NNE,12,0.0,0.0,60,0.00,,,0.00,VWS V13.01,2013-07-04 03:11:00,
2013-07-03 22:16:00,66.7,52.0,29.98,NNE,12,0.0,0.0,59,0.00,,,0.00,VWS V13.01,2013-07-04 03:16:00,
2013-07-03 22:21:00,66.9,51.7,29.98,NNE,12,0.0,0.0,58,0.00,,,0.00,VWS V13.01,2013-07-04 03:21:00,
2013-07-03 22:26:00,66.7,52.0,29.98,NNE,12,0.0,0.0,59,0.00,,,0.00,VWS V13.01,2013-07-04 03:26:00,
2013-07-03 22:31:00,66.4,51.6,29.98,NE,38,0.0,0.0,59,0.00,,,0.00,VWS V13.01,2013-07-04 03:31:00,
2013-07-03 22:36:00,65.8,52.5,29.98,NE,38,0.0,0.0,62,0.00,,,0.00,VWS V13.01,2013-07-04 03:36:00,
2013-07-03 22:41:00,65.3,52.8,29.98,NNE,33,2.2,2.7,64,0.00,,,0.00,VWS V13.01,2013-07-04 03:41:00,
2013-07-03 22:46:00,64.7,52.3,30.01,NNE,33,0.0,0.0,64,0.00,,,0.00,VWS V13.01,2013-07-04 03:46:00,
2013-07-03 22:51:00,64.6,52.1,30.01,NNE,33,0.0,0.0,64,0.00,,,0.00,VWS V13.01,2013-07-04 03:51:00,
2013-07-03 22:56:00,64.6,51.7,30.01,NNE,30,0.0,0.0,63,0.00,,,0.00,VWS V13.01,2013-07-04 03:56:00,
2013-07-03 23:01:00,64.6,52.1,30.01,NNE,30,0.0,0.0,64,0.00,,,0.00,VWS V13.01,2013-07-04 04:01:00,
2013-07-03 23:06:00,64.2,51.8,30.01,NNE,30,0.0,0.0,64,0.00,,,0.00,VWS V13.01,2013-07-04 04:06:00,
2013-07-03 23:11:00,64.2,51.4,30.01,NNE,30,0.0,0.0,63,0.00,,,0.00,VWS V13.01,2013-07-04 04:11:00,
2013-07-03 23:16:00,64.2,51.4,30.01,NNE,12,0.0,0.0,63,0.00,,,0.00,VWS V13.01,2013-07-04 04:16:00,
2013-07-03 23:21:00,64.4,51.1,30.01,NNE,12,0.0,0.0,62,0.00,,,0.00,VWS V13.01,2013-07-04 04:21:00,
2013-07-03 23:26:00,64.4,51.5,30.01,NNE,12,0.0,0.0,63,0.00,,,0.00,VWS V13.01,2013-07-04 04:26:00,
2013-07-03 23:31:00,64.4,51.5,30.01,NNE,12,0.0,0.0,63,0.00,,,0.00,VWS V13.01,2013-07-04 04:31:00,
2013-07-03 23:36:00,64.4,50.7,30.01,NE,35,3.1,4.0,61,0.00,,,0.00,VWS V13.01,2013-07-04 04:36:00,
2013-07-03 23:41:00,64.7,50.1,30.01,NNE,30,2.7,2.7,59,0.00,,,0.00,VWS V13.01,2013-07-04 04:41:00,
2013-07-03 23:46:00,64.9,50.3,30.01,NNE,30,0.0,0.0,59,0.00,,,0.00,VWS V13.01,2013-07-04 04:46:00,
2013-07-03 23:51:00,64.9,50.3,30.01,NNE,30,0.0,0.0,59,0.00,,,0.00,VWS V13.01,2013-07-04 04:51:00,
2013-07-03 23:56:00,64.9,49.3,30.01,NNE,29,0.0,0.0,57,0.00,,,0.00,VWS V13.01,2013-07-04 04:56:00,